sensor_id;sensor_type;location;lat;lon;timestamp;temperature;humidity
7461;DHT22;6757;52.258;12.840;2023-06-10T00:01:39;16.00;99.90
7461;DHT22;6757;52.258;12.840;2023-06-10T00:04:07;15.90;99.90
7461;DHT22;6757;52.258;12.840;2023-06-10T00:06:34;15.90;99.90
7461;DHT22;6757;52.258;12.840;2023-06-10T00:09:04;15.80;99.90
7461;DHT22;6757;52.258;12.840;2023-06-10T00:11:33;15.80;99.90
7461;DHT22;6757;52.258;12.840;2023-06-10T00:14:00;15.70;99.90
7461;DHT22;6757;52.258;12.840;2023-06-10T00:16:27;15.70;99.90
7461;DHT22;6757;52.258;12.840;2023-06-10T00:18:54;15.60;99.90
7461;DHT22;6757;52.258;12.840;2023-06-10T00:21:27;15.60;99.90
7461;DHT22;6757;52.258;12.840;2023-06-10T00:23:54;15.60;99.90
7461;DHT22;6757;52.258;12.840;2023-06-10T00:26:23;15.50;99.90
7461;DHT22;6757;52.258;12.840;2023-06-10T00:28:51;15.50;99.90
7461;DHT22;6757;52.258;12.840;2023-06-10T00:31:18;15.40;99.90
7461;DHT22;6757;52.258;12.840;2023-06-10T00:33:45;15.40;99.90
7461;DHT22;6757;52.258;12.840;2023-06-10T00:36:12;15.30;99.90
7461;DHT22;6757;52.258;12.840;2023-06-10T00:38:39;15.30;99.90
7461;DHT22;6757;52.258;12.840;2023-06-10T00:41:07;15.30;99.90
7461;DHT22;6757;52.258;12.840;2023-06-10T00:43:35;15.20;99.90
7461;DHT22;6757;52.258;12.840;2023-06-10T00:46:02;15.20;99.90
7461;DHT22;6757;52.258;12.840;2023-06-10T00:48:29;15.20;99.90
7461;DHT22;6757;52.258;12.840;2023-06-10T00:50:57;15.10;99.90
7461;DHT22;6757;52.258;12.840;2023-06-10T00:53:24;15.10;99.90
7461;DHT22;6757;52.258;12.840;2023-06-10T00:55:51;15.00;99.90
7461;DHT22;6757;52.258;12.840;2023-06-10T00:58:19;15.00;99.90
7461;DHT22;6757;52.258;12.840;2023-06-10T01:00:48;14.90;99.90
7461;DHT22;6757;52.258;12.840;2023-06-10T01:03:15;14.90;99.90
7461;DHT22;6757;52.258;12.840;2023-06-10T01:05:43;14.80;99.90
7461;DHT22;6757;52.258;12.840;2023-06-10T01:08:15;14.80;99.90
7461;DHT22;6757;52.258;12.840;2023-06-10T01:10:50;14.70;99.90
7461;DHT22;6757;52.258;12.840;2023-06-10T01:13:23;14.70;99.90
7461;DHT22;6757;52.258;12.840;2023-06-10T01:15:56;14.70;99.90
7461;DHT22;6757;52.258;12.840;2023-06-10T01:18:23;14.60;99.90
7461;DHT22;6757;52.258;12.840;2023-06-10T01:20:53;14.60;99.90
7461;DHT22;6757;52.258;12.840;2023-06-10T01:23:23;14.50;99.90
7461;DHT22;6757;52.258;12.840;2023-06-10T01:25:55;14.50;99.90
7461;DHT22;6757;52.258;12.840;2023-06-10T01:28:29;14.50;99.90
7461;DHT22;6757;52.258;12.840;2023-06-10T01:31:02;14.40;99.90
7461;DHT22;6757;52.258;12.840;2023-06-10T01:36:41;14.40;99.90
7461;DHT22;6757;52.258;12.840;2023-06-10T01:39:13;14.30;99.90
7461;DHT22;6757;52.258;12.840;2023-06-10T01:41:41;14.30;99.90
7461;DHT22;6757;52.258;12.840;2023-06-10T01:44:08;14.30;99.90
7461;DHT22;6757;52.258;12.840;2023-06-10T01:46:35;14.20;99.90
7461;DHT22;6757;52.258;12.840;2023-06-10T01:49:02;14.20;99.90
7461;DHT22;6757;52.258;12.840;2023-06-10T01:51:29;14.20;99.90
7461;DHT22;6757;52.258;12.840;2023-06-10T01:53:57;14.10;99.90
7461;DHT22;6757;52.258;12.840;2023-06-10T01:56:25;14.10;99.90
7461;DHT22;6757;52.258;12.840;2023-06-10T01:58:52;14.10;99.90
7461;DHT22;6757;52.258;12.840;2023-06-10T02:01:24;14.00;99.90
7461;DHT22;6757;52.258;12.840;2023-06-10T02:03:51;14.60;99.90
7461;DHT22;6757;52.258;12.840;2023-06-10T02:06:18;14.00;99.90
7461;DHT22;6757;52.258;12.840;2023-06-10T02:08:45;13.90;99.90
7461;DHT22;6757;52.258;12.840;2023-06-10T02:11:12;13.90;99.90
7461;DHT22;6757;52.258;12.840;2023-06-10T02:13:40;13.90;99.90
7461;DHT22;6757;52.258;12.840;2023-06-10T02:16:07;13.90;99.90
7461;DHT22;6757;52.258;12.840;2023-06-10T02:18:34;13.90;99.90
7461;DHT22;6757;52.258;12.840;2023-06-10T02:21:01;13.80;99.90
7461;DHT22;6757;52.258;12.840;2023-06-10T02:23:29;13.80;99.90
7461;DHT22;6757;52.258;12.840;2023-06-10T02:25:55;13.80;99.90
7461;DHT22;6757;52.258;12.840;2023-06-10T02:28:22;13.80;99.90
7461;DHT22;6757;52.258;12.840;2023-06-10T02:30:51;13.80;99.90
7461;DHT22;6757;52.258;12.840;2023-06-10T02:33:18;13.70;99.90
7461;DHT22;6757;52.258;12.840;2023-06-10T02:35:46;13.70;99.90
7461;DHT22;6757;52.258;12.840;2023-06-10T02:38:13;13.80;99.90
7461;DHT22;6757;52.258;12.840;2023-06-10T02:40:39;13.70;99.90
7461;DHT22;6757;52.258;12.840;2023-06-10T02:43:06;13.70;99.90
7461;DHT22;6757;52.258;12.840;2023-06-10T02:45:33;13.70;99.90
7461;DHT22;6757;52.258;12.840;2023-06-10T02:48:02;13.70;99.90
7461;DHT22;6757;52.258;12.840;2023-06-10T02:50:28;13.70;99.90
7461;DHT22;6757;52.258;12.840;2023-06-10T02:52:55;13.60;99.90
7461;DHT22;6757;52.258;12.840;2023-06-10T02:55:22;13.60;99.90
7461;DHT22;6757;52.258;12.840;2023-06-10T02:57:51;13.50;99.90
7461;DHT22;6757;52.258;12.840;2023-06-10T03:00:19;13.50;99.90
7461;DHT22;6757;52.258;12.840;2023-06-10T03:02:47;13.50;99.90
7461;DHT22;6757;52.258;12.840;2023-06-10T03:05:15;13.50;99.90
7461;DHT22;6757;52.258;12.840;2023-06-10T03:07:42;13.50;99.90
7461;DHT22;6757;52.258;12.840;2023-06-10T03:10:11;13.40;99.90
7461;DHT22;6757;52.258;12.840;2023-06-10T03:12:38;13.40;99.90
7461;DHT22;6757;52.258;12.840;2023-06-10T03:15:06;13.40;99.90
7461;DHT22;6757;52.258;12.840;2023-06-10T03:17:33;13.30;99.90
7461;DHT22;6757;52.258;12.840;2023-06-10T03:20:00;13.30;99.90
7461;DHT22;6757;52.258;12.840;2023-06-10T03:22:29;13.30;99.90
7461;DHT22;6757;52.258;12.840;2023-06-10T03:24:56;13.30;99.90
7461;DHT22;6757;52.258;12.840;2023-06-10T03:27:25;13.30;99.90
7461;DHT22;6757;52.258;12.840;2023-06-10T03:29:52;13.30;99.90
7461;DHT22;6757;52.258;12.840;2023-06-10T03:32:19;13.30;99.90
7461;DHT22;6757;52.258;12.840;2023-06-10T03:34:46;13.20;99.90
7461;DHT22;6757;52.258;12.840;2023-06-10T03:37:13;13.20;99.90
7461;DHT22;6757;52.258;12.840;2023-06-10T03:39:41;13.20;99.90
7461;DHT22;6757;52.258;12.840;2023-06-10T03:42:08;13.20;99.90
7461;DHT22;6757;52.258;12.840;2023-06-10T03:44:35;13.20;99.90
7461;DHT22;6757;52.258;12.840;2023-06-10T03:47:03;13.20;99.90
7461;DHT22;6757;52.258;12.840;2023-06-10T03:49:31;13.20;99.90
7461;DHT22;6757;52.258;12.840;2023-06-10T03:51:58;13.20;99.90
7461;DHT22;6757;52.258;12.840;2023-06-10T03:54:25;13.20;99.90
7461;DHT22;6757;52.258;12.840;2023-06-10T03:56:53;13.20;99.90
7461;DHT22;6757;52.258;12.840;2023-06-10T03:59:20;13.20;99.90
7461;DHT22;6757;52.258;12.840;2023-06-10T04:01:47;13.30;99.90
7461;DHT22;6757;52.258;12.840;2023-06-10T04:04:14;13.30;99.90
7461;DHT22;6757;52.258;12.840;2023-06-10T04:06:42;13.30;99.90
7461;DHT22;6757;52.258;12.840;2023-06-10T04:09:10;13.30;99.90
7461;DHT22;6757;52.258;12.840;2023-06-10T04:11:37;13.30;99.90
7461;DHT22;6757;52.258;12.840;2023-06-10T04:14:05;13.40;99.90
7461;DHT22;6757;52.258;12.840;2023-06-10T04:16:33;13.40;99.90
7461;DHT22;6757;52.258;12.840;2023-06-10T04:19:01;13.40;99.90
7461;DHT22;6757;52.258;12.840;2023-06-10T04:21:28;13.40;99.90
7461;DHT22;6757;52.258;12.840;2023-06-10T04:23:55;13.40;99.90
7461;DHT22;6757;52.258;12.840;2023-06-10T04:26:22;13.50;99.90
7461;DHT22;6757;52.258;12.840;2023-06-10T04:28:49;14.30;99.90
7461;DHT22;6757;52.258;12.840;2023-06-10T04:31:17;13.50;99.90
7461;DHT22;6757;52.258;12.840;2023-06-10T04:33:44;13.50;99.90
7461;DHT22;6757;52.258;12.840;2023-06-10T04:36:11;13.60;99.90
7461;DHT22;6757;52.258;12.840;2023-06-10T04:38:40;13.60;99.90
7461;DHT22;6757;52.258;12.840;2023-06-10T04:41:07;13.70;99.90
7461;DHT22;6757;52.258;12.840;2023-06-10T04:43:34;13.70;99.90
7461;DHT22;6757;52.258;12.840;2023-06-10T04:46:01;13.80;99.90
7461;DHT22;6757;52.258;12.840;2023-06-10T04:48:29;13.80;99.90
7461;DHT22;6757;52.258;12.840;2023-06-10T04:50:56;13.90;99.90
7461;DHT22;6757;52.258;12.840;2023-06-10T04:53:24;13.90;99.90
7461;DHT22;6757;52.258;12.840;2023-06-10T04:55:51;14.00;99.90
7461;DHT22;6757;52.258;12.840;2023-06-10T04:58:18;14.10;99.90
7461;DHT22;6757;52.258;12.840;2023-06-10T05:00:45;14.20;99.90
7461;DHT22;6757;52.258;12.840;2023-06-10T05:03:12;14.20;99.90
7461;DHT22;6757;52.258;12.840;2023-06-10T05:05:40;14.30;99.90
7461;DHT22;6757;52.258;12.840;2023-06-10T05:08:07;14.90;99.90
7461;DHT22;6757;52.258;12.840;2023-06-10T05:10:34;14.40;99.90
7461;DHT22;6757;52.258;12.840;2023-06-10T05:13:01;14.40;99.90
7461;DHT22;6757;52.258;12.840;2023-06-10T05:15:28;14.50;99.90
7461;DHT22;6757;52.258;12.840;2023-06-10T05:17:56;14.50;99.90
7461;DHT22;6757;52.258;12.840;2023-06-10T05:20:24;14.60;99.90
7461;DHT22;6757;52.258;12.840;2023-06-10T05:22:53;14.60;99.90
7461;DHT22;6757;52.258;12.840;2023-06-10T05:25:20;14.70;99.90
7461;DHT22;6757;52.258;12.840;2023-06-10T05:27:47;14.70;99.90
7461;DHT22;6757;52.258;12.840;2023-06-10T05:30:14;14.70;99.90
7461;DHT22;6757;52.258;12.840;2023-06-10T05:32:44;14.90;99.90
7461;DHT22;6757;52.258;12.840;2023-06-10T05:35:11;15.00;99.90
7461;DHT22;6757;52.258;12.840;2023-06-10T05:37:38;15.00;99.90
7461;DHT22;6757;52.258;12.840;2023-06-10T05:40:07;15.20;99.90
7461;DHT22;6757;52.258;12.840;2023-06-10T05:42:35;15.30;99.90
7461;DHT22;6757;52.258;12.840;2023-06-10T05:45:03;15.40;99.90
7461;DHT22;6757;52.258;12.840;2023-06-10T05:47:30;15.50;99.90
7461;DHT22;6757;52.258;12.840;2023-06-10T05:49:57;15.60;99.90
7461;DHT22;6757;52.258;12.840;2023-06-10T05:52:24;15.70;99.90
7461;DHT22;6757;52.258;12.840;2023-06-10T05:54:51;15.90;99.90
7461;DHT22;6757;52.258;12.840;2023-06-10T05:57:21;16.00;99.90
7461;DHT22;6757;52.258;12.840;2023-06-10T05:59:48;16.10;99.90
7461;DHT22;6757;52.258;12.840;2023-06-10T06:02:15;16.20;99.90
7461;DHT22;6757;52.258;12.840;2023-06-10T06:04:42;16.30;99.90
7461;DHT22;6757;52.258;12.840;2023-06-10T06:07:09;16.90;99.90
7461;DHT22;6757;52.258;12.840;2023-06-10T06:09:36;16.50;99.90
7461;DHT22;6757;52.258;12.840;2023-06-10T06:12:03;16.60;99.90
7461;DHT22;6757;52.258;12.840;2023-06-10T06:14:37;16.80;99.90
7461;DHT22;6757;52.258;12.840;2023-06-10T06:17:05;16.90;99.90
7461;DHT22;6757;52.258;12.840;2023-06-10T06:19:32;17.00;99.90
7461;DHT22;6757;52.258;12.840;2023-06-10T06:21:59;17.10;99.90
7461;DHT22;6757;52.258;12.840;2023-06-10T06:24:26;17.20;99.90
7461;DHT22;6757;52.258;12.840;2023-06-10T06:26:53;17.30;99.90
7461;DHT22;6757;52.258;12.840;2023-06-10T06:29:20;17.40;99.90
7461;DHT22;6757;52.258;12.840;2023-06-10T06:31:48;17.50;99.90
7461;DHT22;6757;52.258;12.840;2023-06-10T06:34:15;17.60;99.90
7461;DHT22;6757;52.258;12.840;2023-06-10T06:36:42;17.70;99.90
7461;DHT22;6757;52.258;12.840;2023-06-10T06:39:09;17.90;99.90
7461;DHT22;6757;52.258;12.840;2023-06-10T06:41:36;18.00;99.90
7461;DHT22;6757;52.258;12.840;2023-06-10T06:44:03;18.00;99.90
7461;DHT22;6757;52.258;12.840;2023-06-10T06:46:30;18.10;99.90
7461;DHT22;6757;52.258;12.840;2023-06-10T06:48:58;18.20;99.90
7461;DHT22;6757;52.258;12.840;2023-06-10T06:51:25;18.30;99.90
7461;DHT22;6757;52.258;12.840;2023-06-10T06:53:53;18.30;99.90
7461;DHT22;6757;52.258;12.840;2023-06-10T06:56:23;18.50;99.90
7461;DHT22;6757;52.258;12.840;2023-06-10T06:58:51;18.50;99.90
7461;DHT22;6757;52.258;12.840;2023-06-10T07:01:18;18.70;99.90
7461;DHT22;6757;52.258;12.840;2023-06-10T07:03:45;18.70;99.90
7461;DHT22;6757;52.258;12.840;2023-06-10T07:06:14;18.70;99.90
7461;DHT22;6757;52.258;12.840;2023-06-10T07:08:41;18.70;99.90
7461;DHT22;6757;52.258;12.840;2023-06-10T07:11:08;18.80;99.90
7461;DHT22;6757;52.258;12.840;2023-06-10T07:13:35;18.90;99.90
7461;DHT22;6757;52.258;12.840;2023-06-10T07:16:02;19.00;99.90
7461;DHT22;6757;52.258;12.840;2023-06-10T07:18:29;19.10;99.90
7461;DHT22;6757;52.258;12.840;2023-06-10T07:20:56;19.20;99.90
7461;DHT22;6757;52.258;12.840;2023-06-10T07:23:24;19.30;99.90
7461;DHT22;6757;52.258;12.840;2023-06-10T07:25:51;19.50;99.90
7461;DHT22;6757;52.258;12.840;2023-06-10T07:28:18;19.60;99.90
7461;DHT22;6757;52.258;12.840;2023-06-10T07:30:45;19.80;99.90
7461;DHT22;6757;52.258;12.840;2023-06-10T07:33:12;19.90;99.90
7461;DHT22;6757;52.258;12.840;2023-06-10T07:35:39;20.00;99.90
7461;DHT22;6757;52.258;12.840;2023-06-10T07:38:08;20.20;99.90
7461;DHT22;6757;52.258;12.840;2023-06-10T07:40:36;20.40;99.90
7461;DHT22;6757;52.258;12.840;2023-06-10T07:43:03;20.60;99.90
7461;DHT22;6757;52.258;12.840;2023-06-10T07:45:30;20.70;99.90
7461;DHT22;6757;52.258;12.840;2023-06-10T07:47:57;20.90;99.90
7461;DHT22;6757;52.258;12.840;2023-06-10T07:50:24;21.10;99.90
7461;DHT22;6757;52.258;12.840;2023-06-10T07:52:51;21.20;99.90
7461;DHT22;6757;52.258;12.840;2023-06-10T07:55:18;21.40;99.90
7461;DHT22;6757;52.258;12.840;2023-06-10T07:57:46;21.50;99.90
7461;DHT22;6757;52.258;12.840;2023-06-10T08:00:14;21.50;99.90
7461;DHT22;6757;52.258;12.840;2023-06-10T08:02:41;21.60;99.90
7461;DHT22;6757;52.258;12.840;2023-06-10T08:05:08;21.70;99.90
7461;DHT22;6757;52.258;12.840;2023-06-10T08:07:35;21.90;99.90
7461;DHT22;6757;52.258;12.840;2023-06-10T08:10:03;21.90;99.90
7461;DHT22;6757;52.258;12.840;2023-06-10T08:12:30;22.10;99.90
7461;DHT22;6757;52.258;12.840;2023-06-10T08:14:59;22.20;99.90
7461;DHT22;6757;52.258;12.840;2023-06-10T08:17:26;22.30;99.90
7461;DHT22;6757;52.258;12.840;2023-06-10T08:19:53;22.40;99.90
7461;DHT22;6757;52.258;12.840;2023-06-10T08:22:20;22.50;99.90
7461;DHT22;6757;52.258;12.840;2023-06-10T08:24:47;22.70;99.90
7461;DHT22;6757;52.258;12.840;2023-06-10T08:27:14;22.70;99.90
7461;DHT22;6757;52.258;12.840;2023-06-10T08:29:41;22.80;99.90
7461;DHT22;6757;52.258;12.840;2023-06-10T08:32:09;22.80;99.90
7461;DHT22;6757;52.258;12.840;2023-06-10T08:34:36;22.90;99.90
7461;DHT22;6757;52.258;12.840;2023-06-10T08:37:04;23.00;99.90
7461;DHT22;6757;52.258;12.840;2023-06-10T08:39:31;23.10;99.90
7461;DHT22;6757;52.258;12.840;2023-06-10T08:42:04;23.20;99.90
7461;DHT22;6757;52.258;12.840;2023-06-10T08:44:38;23.20;99.90
7461;DHT22;6757;52.258;12.840;2023-06-10T08:47:11;23.30;99.90
7461;DHT22;6757;52.258;12.840;2023-06-10T08:49:43;23.30;99.90
7461;DHT22;6757;52.258;12.840;2023-06-10T08:52:14;23.40;99.90
7461;DHT22;6757;52.258;12.840;2023-06-10T08:54:45;23.50;99.90
7461;DHT22;6757;52.258;12.840;2023-06-10T08:57:15;23.60;99.90
7461;DHT22;6757;52.258;12.840;2023-06-10T08:59:43;23.70;99.90
7461;DHT22;6757;52.258;12.840;2023-06-10T09:02:12;23.70;99.90
7461;DHT22;6757;52.258;12.840;2023-06-10T09:04:42;23.80;99.90
7461;DHT22;6757;52.258;12.840;2023-06-10T09:07:11;23.90;99.90
7461;DHT22;6757;52.258;12.840;2023-06-10T09:09:40;24.00;99.90
7461;DHT22;6757;52.258;12.840;2023-06-10T09:12:09;24.10;99.90
7461;DHT22;6757;52.258;12.840;2023-06-10T09:14:37;24.20;99.90
7461;DHT22;6757;52.258;12.840;2023-06-10T09:17:06;24.30;99.90
7461;DHT22;6757;52.258;12.840;2023-06-10T09:19:35;24.40;99.90
7461;DHT22;6757;52.258;12.840;2023-06-10T09:22:04;24.40;99.90
7461;DHT22;6757;52.258;12.840;2023-06-10T09:24:31;24.60;99.90
7461;DHT22;6757;52.258;12.840;2023-06-10T09:27:03;24.60;99.90
7461;DHT22;6757;52.258;12.840;2023-06-10T09:32:59;24.70;99.90
7461;DHT22;6757;52.258;12.840;2023-06-10T09:35:30;25.30;99.90
7461;DHT22;6757;52.258;12.840;2023-06-10T09:37:59;25.30;99.90
7461;DHT22;6757;52.258;12.840;2023-06-10T09:40:27;25.30;99.90
7461;DHT22;6757;52.258;12.840;2023-06-10T09:42:55;25.40;99.90
7461;DHT22;6757;52.258;12.840;2023-06-10T09:45:23;25.50;99.90
7461;DHT22;6757;52.258;12.840;2023-06-10T09:47:53;25.60;99.90
7461;DHT22;6757;52.258;12.840;2023-06-10T09:50:21;25.70;99.90
7461;DHT22;6757;52.258;12.840;2023-06-10T09:52:50;25.90;99.90
7461;DHT22;6757;52.258;12.840;2023-06-10T09:55:18;25.90;99.90
7461;DHT22;6757;52.258;12.840;2023-06-10T09:57:49;26.00;99.90
7461;DHT22;6757;52.258;12.840;2023-06-10T10:00:16;26.00;99.90
7461;DHT22;6757;52.258;12.840;2023-06-10T10:02:45;26.10;99.90
7461;DHT22;6757;52.258;12.840;2023-06-10T10:05:14;26.20;99.90
7461;DHT22;6757;52.258;12.840;2023-06-10T10:07:43;26.30;99.90
7461;DHT22;6757;52.258;12.840;2023-06-10T10:10:13;26.30;99.90
7461;DHT22;6757;52.258;12.840;2023-06-10T10:12:42;26.40;99.90
7461;DHT22;6757;52.258;12.840;2023-06-10T10:15:10;26.40;99.90
7461;DHT22;6757;52.258;12.840;2023-06-10T10:17:40;26.60;99.90
7461;DHT22;6757;52.258;12.840;2023-06-10T10:20:14;26.60;99.90
7461;DHT22;6757;52.258;12.840;2023-06-10T10:22:44;26.60;99.90
7461;DHT22;6757;52.258;12.840;2023-06-10T10:25:16;26.90;99.90
7461;DHT22;6757;52.258;12.840;2023-06-10T10:27:51;26.90;99.90
7461;DHT22;6757;52.258;12.840;2023-06-10T10:30:20;27.00;99.50
7461;DHT22;6757;52.258;12.840;2023-06-10T10:32:55;27.10;99.00
7461;DHT22;6757;52.258;12.840;2023-06-10T10:35:25;27.20;98.50
7461;DHT22;6757;52.258;12.840;2023-06-10T10:37:54;27.30;98.10
7461;DHT22;6757;52.258;12.840;2023-06-10T10:40:23;27.30;97.60
7461;DHT22;6757;52.258;12.840;2023-06-10T10:42:51;27.40;97.30
7461;DHT22;6757;52.258;12.840;2023-06-10T10:45:21;27.50;97.00
7461;DHT22;6757;52.258;12.840;2023-06-10T10:47:53;27.70;96.70
7461;DHT22;6757;52.258;12.840;2023-06-10T10:50:22;27.70;96.10
7461;DHT22;6757;52.258;12.840;2023-06-10T10:52:55;27.80;95.40
7461;DHT22;6757;52.258;12.840;2023-06-10T10:55:24;27.90;95.00
7461;DHT22;6757;52.258;12.840;2023-06-10T10:57:55;28.00;94.60
7461;DHT22;6757;52.258;12.840;2023-06-10T11:00:34;28.30;94.30
7461;DHT22;6757;52.258;12.840;2023-06-10T11:03:06;28.30;94.00
7461;DHT22;6757;52.258;12.840;2023-06-10T11:05:38;28.40;93.80
7461;DHT22;6757;52.258;12.840;2023-06-10T11:08:07;28.40;93.10
7461;DHT22;6757;52.258;12.840;2023-06-10T11:10:37;28.40;93.00
7461;DHT22;6757;52.258;12.840;2023-06-10T11:13:09;28.40;92.30
7461;DHT22;6757;52.258;12.840;2023-06-10T11:15:43;28.40;92.10
7461;DHT22;6757;52.258;12.840;2023-06-10T11:18:22;28.50;91.90
7461;DHT22;6757;52.258;12.840;2023-06-10T11:20:58;28.60;91.50
7461;DHT22;6757;52.258;12.840;2023-06-10T11:23:34;28.70;91.00
7461;DHT22;6757;52.258;12.840;2023-06-10T11:26:15;28.90;90.60
7461;DHT22;6757;52.258;12.840;2023-06-10T11:29:16;29.10;90.20
7461;DHT22;6757;52.258;12.840;2023-06-10T11:31:45;29.30;88.90
7461;DHT22;6757;52.258;12.840;2023-06-10T11:34:20;29.50;87.90
7461;DHT22;6757;52.258;12.840;2023-06-10T11:36:50;29.60;86.70
7461;DHT22;6757;52.258;12.840;2023-06-10T11:39:20;29.90;85.50
7461;DHT22;6757;52.258;12.840;2023-06-10T11:41:50;30.20;84.00
7461;DHT22;6757;52.258;12.840;2023-06-10T11:44:18;30.30;82.10
7461;DHT22;6757;52.258;12.840;2023-06-10T11:46:48;30.40;81.10
7461;DHT22;6757;52.258;12.840;2023-06-10T11:49:15;30.40;80.60
7461;DHT22;6757;52.258;12.840;2023-06-10T11:51:42;30.40;80.20
7461;DHT22;6757;52.258;12.840;2023-06-10T11:54:14;30.50;79.70
7461;DHT22;6757;52.258;12.840;2023-06-10T11:56:42;30.70;79.20
7461;DHT22;6757;52.258;12.840;2023-06-10T11:59:11;30.70;78.30
7461;DHT22;6757;52.258;12.840;2023-06-10T12:01:42;30.60;77.80
7461;DHT22;6757;52.258;12.840;2023-06-10T12:04:11;30.70;77.70
7461;DHT22;6757;52.258;12.840;2023-06-10T12:06:40;30.60;77.60
7461;DHT22;6757;52.258;12.840;2023-06-10T12:09:22;30.50;77.60
7461;DHT22;6757;52.258;12.840;2023-06-10T12:11:52;30.30;77.60
7461;DHT22;6757;52.258;12.840;2023-06-10T12:14:54;30.10;77.80
7461;DHT22;6757;52.258;12.840;2023-06-10T12:17:23;29.80;77.90
7461;DHT22;6757;52.258;12.840;2023-06-10T12:20:03;29.80;78.30
7461;DHT22;6757;52.258;12.840;2023-06-10T12:22:36;29.60;78.30
7461;DHT22;6757;52.258;12.840;2023-06-10T12:25:05;29.60;78.20
7461;DHT22;6757;52.258;12.840;2023-06-10T12:27:34;29.60;78.00
7461;DHT22;6757;52.258;12.840;2023-06-10T12:30:04;29.70;77.40
7461;DHT22;6757;52.258;12.840;2023-06-10T12:32:38;30.10;76.60
7461;DHT22;6757;52.258;12.840;2023-06-10T12:35:07;30.80;75.70
7461;DHT22;6757;52.258;12.840;2023-06-10T12:37:35;31.60;72.90
7461;DHT22;6757;52.258;12.840;2023-06-10T12:40:03;32.40;71.00
7461;DHT22;6757;52.258;12.840;2023-06-10T12:42:32;33.30;68.80
7461;DHT22;6757;52.258;12.840;2023-06-10T12:45:00;34.00;65.90
7461;DHT22;6757;52.258;12.840;2023-06-10T12:47:32;34.70;62.90
7461;DHT22;6757;52.258;12.840;2023-06-10T12:50:02;35.30;60.00
7461;DHT22;6757;52.258;12.840;2023-06-10T12:52:29;35.90;57.30
7461;DHT22;6757;52.258;12.840;2023-06-10T12:54:58;36.50;55.20
7461;DHT22;6757;52.258;12.840;2023-06-10T12:57:26;37.00;52.60
7461;DHT22;6757;52.258;12.840;2023-06-10T12:59:53;37.40;50.90
7461;DHT22;6757;52.258;12.840;2023-06-10T13:02:22;37.50;49.70
7461;DHT22;6757;52.258;12.840;2023-06-10T13:04:51;37.80;49.00
7461;DHT22;6757;52.258;12.840;2023-06-10T13:07:18;37.60;47.70
7461;DHT22;6757;52.258;12.840;2023-06-10T13:09:45;37.80;47.20
7461;DHT22;6757;52.258;12.840;2023-06-10T13:12:14;38.00;46.70
7461;DHT22;6757;52.258;12.840;2023-06-10T13:14:43;37.90;46.10
7461;DHT22;6757;52.258;12.840;2023-06-10T13:17:10;37.40;46.10
7461;DHT22;6757;52.258;12.840;2023-06-10T13:19:37;37.30;46.80
7461;DHT22;6757;52.258;12.840;2023-06-10T13:22:05;37.60;47.00
7461;DHT22;6757;52.258;12.840;2023-06-10T13:24:32;37.90;46.80
7461;DHT22;6757;52.258;12.840;2023-06-10T13:26:59;38.20;46.60
7461;DHT22;6757;52.258;12.840;2023-06-10T13:29:26;38.50;46.20
7461;DHT22;6757;52.258;12.840;2023-06-10T13:31:53;38.90;46.00
7461;DHT22;6757;52.258;12.840;2023-06-10T13:34:20;39.20;45.50
7461;DHT22;6757;52.258;12.840;2023-06-10T13:36:47;39.60;45.20
7461;DHT22;6757;52.258;12.840;2023-06-10T13:39:15;39.80;44.60
7461;DHT22;6757;52.258;12.840;2023-06-10T13:41:43;40.30;44.40
7461;DHT22;6757;52.258;12.840;2023-06-10T13:44:09;40.40;44.10
7461;DHT22;6757;52.258;12.840;2023-06-10T13:46:36;40.40;44.20
7461;DHT22;6757;52.258;12.840;2023-06-10T13:49:03;40.10;44.50
7461;DHT22;6757;52.258;12.840;2023-06-10T13:51:30;39.70;44.90
7461;DHT22;6757;52.258;12.840;2023-06-10T13:53:57;39.10;45.30
7461;DHT22;6757;52.258;12.840;2023-06-10T13:56:26;38.60;46.00
7461;DHT22;6757;52.258;12.840;2023-06-10T13:58:53;37.90;46.70
7461;DHT22;6757;52.258;12.840;2023-06-10T14:01:20;37.10;47.50
7461;DHT22;6757;52.258;12.840;2023-06-10T14:03:47;36.20;48.60
7461;DHT22;6757;52.258;12.840;2023-06-10T14:06:14;35.50;50.30
7461;DHT22;6757;52.258;12.840;2023-06-10T14:08:43;34.50;52.40
7461;DHT22;6757;52.258;12.840;2023-06-10T14:11:10;33.60;55.90
7461;DHT22;6757;52.258;12.840;2023-06-10T14:13:40;32.60;59.30
7461;DHT22;6757;52.258;12.840;2023-06-10T14:16:07;31.70;62.80
7461;DHT22;6757;52.258;12.840;2023-06-10T14:18:34;30.70;65.70
7461;DHT22;6757;52.258;12.840;2023-06-10T14:21:01;30.10;68.50
7461;DHT22;6757;52.258;12.840;2023-06-10T14:23:27;29.40;70.80
7461;DHT22;6757;52.258;12.840;2023-06-10T14:25:54;28.80;73.50
7461;DHT22;6757;52.258;12.840;2023-06-10T14:28:21;28.40;75.80
7461;DHT22;6757;52.258;12.840;2023-06-10T14:30:50;27.80;78.10
7461;DHT22;6757;52.258;12.840;2023-06-10T14:33:18;27.50;80.50
7461;DHT22;6757;52.258;12.840;2023-06-10T14:35:45;27.40;82.60
7461;DHT22;6757;52.258;12.840;2023-06-10T14:38:12;27.40;84.10
7461;DHT22;6757;52.258;12.840;2023-06-10T14:40:38;27.80;86.10
7461;DHT22;6757;52.258;12.840;2023-06-10T14:43:05;28.10;87.00
7461;DHT22;6757;52.258;12.840;2023-06-10T14:45:35;28.60;88.10
7461;DHT22;6757;52.258;12.840;2023-06-10T14:48:04;28.90;88.50
7461;DHT22;6757;52.258;12.840;2023-06-10T14:50:31;29.00;90.10
7461;DHT22;6757;52.258;12.840;2023-06-10T14:52:59;28.80;90.70
7461;DHT22;6757;52.258;12.840;2023-06-10T14:55:26;28.40;91.20
7461;DHT22;6757;52.258;12.840;2023-06-10T14:57:53;28.00;92.10
7461;DHT22;6757;52.258;12.840;2023-06-10T15:00:21;27.50;92.90
7461;DHT22;6757;52.258;12.840;2023-06-10T15:02:49;27.10;93.90
7461;DHT22;6757;52.258;12.840;2023-06-10T15:05:18;26.60;95.20
7461;DHT22;6757;52.258;12.840;2023-06-10T15:07:46;26.20;96.50
7461;DHT22;6757;52.258;12.840;2023-06-10T15:10:13;25.80;97.90
7461;DHT22;6757;52.258;12.840;2023-06-10T15:12:41;25.40;99.40
7461;DHT22;6757;52.258;12.840;2023-06-10T15:15:08;25.00;99.90
7461;DHT22;6757;52.258;12.840;2023-06-10T15:17:35;24.60;99.90
7461;DHT22;6757;52.258;12.840;2023-06-10T15:20:03;24.20;99.90
7461;DHT22;6757;52.258;12.840;2023-06-10T15:22:33;23.80;99.90
7461;DHT22;6757;52.258;12.840;2023-06-10T15:25:00;23.50;99.90
7461;DHT22;6757;52.258;12.840;2023-06-10T15:27:27;23.20;99.90
7461;DHT22;6757;52.258;12.840;2023-06-10T15:29:54;22.90;99.90
7461;DHT22;6757;52.258;12.840;2023-06-10T15:32:21;22.60;99.90
7461;DHT22;6757;52.258;12.840;2023-06-10T15:34:48;22.40;99.90
7461;DHT22;6757;52.258;12.840;2023-06-10T15:37:16;22.30;99.90
7461;DHT22;6757;52.258;12.840;2023-06-10T15:39:44;22.10;99.90
7461;DHT22;6757;52.258;12.840;2023-06-10T15:42:11;21.90;99.90
7461;DHT22;6757;52.258;12.840;2023-06-10T15:44:38;21.80;99.90
7461;DHT22;6757;52.258;12.840;2023-06-10T15:47:05;21.70;99.90
7461;DHT22;6757;52.258;12.840;2023-06-10T15:49:33;21.50;99.90
7461;DHT22;6757;52.258;12.840;2023-06-10T15:52:00;21.40;99.90
7461;DHT22;6757;52.258;12.840;2023-06-10T15:54:27;21.20;99.90
7461;DHT22;6757;52.258;12.840;2023-06-10T15:56:55;21.10;99.90
7461;DHT22;6757;52.258;12.840;2023-06-10T15:59:22;21.00;99.90